sensor_id;sensor_type;location;lat;lon;timestamp;temperature;humidity
26336;DHT22;14047;50.936;4.654;2023-02-13T00:02:18;5.30;99.90
26336;DHT22;14047;50.936;4.654;2023-02-13T00:04:44;5.20;99.90
26336;DHT22;14047;50.936;4.654;2023-02-13T00:07:10;5.30;99.90
26336;DHT22;14047;50.936;4.654;2023-02-13T00:09:37;5.30;99.90
26336;DHT22;14047;50.936;4.654;2023-02-13T00:12:05;5.00;99.90
26336;DHT22;14047;50.936;4.654;2023-02-13T00:14:34;5.00;99.90
26336;DHT22;14047;50.936;4.654;2023-02-13T00:17:00;4.90;99.90
26336;DHT22;14047;50.936;4.654;2023-02-13T00:19:26;4.80;99.90
26336;DHT22;14047;50.936;4.654;2023-02-13T00:21:52;4.60;99.90
26336;DHT22;14047;50.936;4.654;2023-02-13T00:24:18;4.40;99.90
26336;DHT22;14047;50.936;4.654;2023-02-13T00:26:44;4.30;99.90
26336;DHT22;14047;50.936;4.654;2023-02-13T00:29:10;4.40;99.90
26336;DHT22;14047;50.936;4.654;2023-02-13T00:31:36;4.40;99.90
26336;DHT22;14047;50.936;4.654;2023-02-13T00:34:02;4.50;99.90
26336;DHT22;14047;50.936;4.654;2023-02-13T00:36:29;4.60;99.90
26336;DHT22;14047;50.936;4.654;2023-02-13T00:38:55;4.60;99.90
26336;DHT22;14047;50.936;4.654;2023-02-13T00:41:21;4.60;99.90
26336;DHT22;14047;50.936;4.654;2023-02-13T00:43:48;4.60;99.90
26336;DHT22;14047;50.936;4.654;2023-02-13T00:46:15;4.60;99.90
26336;DHT22;14047;50.936;4.654;2023-02-13T00:48:41;4.60;99.90
26336;DHT22;14047;50.936;4.654;2023-02-13T00:51:08;4.50;99.90
26336;DHT22;14047;50.936;4.654;2023-02-13T00:53:35;4.50;99.90
26336;DHT22;14047;50.936;4.654;2023-02-13T00:56:02;4.50;99.90
26336;DHT22;14047;50.936;4.654;2023-02-13T00:58:28;4.50;99.90
26336;DHT22;14047;50.936;4.654;2023-02-13T01:00:56;4.50;99.90
26336;DHT22;14047;50.936;4.654;2023-02-13T01:03:23;4.40;99.90
26336;DHT22;14047;50.936;4.654;2023-02-13T01:05:50;4.40;99.90
26336;DHT22;14047;50.936;4.654;2023-02-13T01:08:18;4.40;99.90
26336;DHT22;14047;50.936;4.654;2023-02-13T01:10:45;4.30;99.90
26336;DHT22;14047;50.936;4.654;2023-02-13T01:13:13;4.20;99.90
26336;DHT22;14047;50.936;4.654;2023-02-13T01:15:39;4.10;99.90
26336;DHT22;14047;50.936;4.654;2023-02-13T01:18:05;4.10;99.90
26336;DHT22;14047;50.936;4.654;2023-02-13T01:20:32;4.00;99.90
26336;DHT22;14047;50.936;4.654;2023-02-13T01:22:58;4.00;99.90
26336;DHT22;14047;50.936;4.654;2023-02-13T01:25:25;4.00;99.90
26336;DHT22;14047;50.936;4.654;2023-02-13T01:27:51;3.90;99.90
26336;DHT22;14047;50.936;4.654;2023-02-13T01:30:18;3.80;99.90
26336;DHT22;14047;50.936;4.654;2023-02-13T01:32:45;3.80;99.90
26336;DHT22;14047;50.936;4.654;2023-02-13T01:35:13;3.90;99.90
26336;DHT22;14047;50.936;4.654;2023-02-13T01:37:40;3.80;99.90
26336;DHT22;14047;50.936;4.654;2023-02-13T01:40:09;3.80;99.90
26336;DHT22;14047;50.936;4.654;2023-02-13T01:42:36;3.80;99.90
26336;DHT22;14047;50.936;4.654;2023-02-13T01:48:02;3.70;99.90
26336;DHT22;14047;50.936;4.654;2023-02-13T01:50:38;3.70;99.90
26336;DHT22;14047;50.936;4.654;2023-02-13T01:55:36;3.40;99.90
26336;DHT22;14047;50.936;4.654;2023-02-13T01:58:10;3.40;99.90
26336;DHT22;14047;50.936;4.654;2023-02-13T02:00:38;3.40;99.90
26336;DHT22;14047;50.936;4.654;2023-02-13T02:03:14;3.30;99.90
26336;DHT22;14047;50.936;4.654;2023-02-13T02:05:43;3.30;99.90
26336;DHT22;14047;50.936;4.654;2023-02-13T02:08:11;3.30;99.90
26336;DHT22;14047;50.936;4.654;2023-02-13T02:10:39;3.30;99.90
26336;DHT22;14047;50.936;4.654;2023-02-13T02:13:14;3.30;99.90
26336;DHT22;14047;50.936;4.654;2023-02-13T02:15:41;3.30;99.90
26336;DHT22;14047;50.936;4.654;2023-02-13T02:18:21;3.40;99.90
26336;DHT22;14047;50.936;4.654;2023-02-13T02:21:11;3.40;99.90
26336;DHT22;14047;50.936;4.654;2023-02-13T02:24:30;3.40;99.90
26336;DHT22;14047;50.936;4.654;2023-02-13T02:32:56;3.50;99.90
26336;DHT22;14047;50.936;4.654;2023-02-13T02:36:35;3.50;99.90
26336;DHT22;14047;50.936;4.654;2023-02-13T02:39:05;3.50;99.90
26336;DHT22;14047;50.936;4.654;2023-02-13T02:50:14;3.60;99.90
26336;DHT22;14047;50.936;4.654;2023-02-13T02:55:48;3.50;99.90
26336;DHT22;14047;50.936;4.654;2023-02-13T03:01:02;3.30;99.90
26336;DHT22;14047;50.936;4.654;2023-02-13T03:03:49;3.50;99.90
26336;DHT22;14047;50.936;4.654;2023-02-13T03:06:39;3.60;99.90
26336;DHT22;14047;50.936;4.654;2023-02-13T03:09:10;3.60;99.90
26336;DHT22;14047;50.936;4.654;2023-02-13T03:11:57;3.70;99.90
26336;DHT22;14047;50.936;4.654;2023-02-13T03:14:42;3.80;99.90
26336;DHT22;14047;50.936;4.654;2023-02-13T03:17:14;3.90;99.90
26336;DHT22;14047;50.936;4.654;2023-02-13T03:28:16;4.10;99.90
26336;DHT22;14047;50.936;4.654;2023-02-13T03:36:49;4.20;99.90
26336;DHT22;14047;50.936;4.654;2023-02-13T03:42:20;4.20;99.90
26336;DHT22;14047;50.936;4.654;2023-02-13T03:44:59;4.30;99.90
26336;DHT22;14047;50.936;4.654;2023-02-13T03:47:47;4.30;99.90
26336;DHT22;14047;50.936;4.654;2023-02-13T03:50:14;4.30;99.90
26336;DHT22;14047;50.936;4.654;2023-02-13T03:52:49;4.40;99.90
26336;DHT22;14047;50.936;4.654;2023-02-13T03:55:19;4.10;99.90
26336;DHT22;14047;50.936;4.654;2023-02-13T03:58:19;4.20;99.90
26336;DHT22;14047;50.936;4.654;2023-02-13T04:01:08;4.30;99.90
26336;DHT22;14047;50.936;4.654;2023-02-13T04:06:15;4.30;99.90
26336;DHT22;14047;50.936;4.654;2023-02-13T04:08:42;4.20;99.90
26336;DHT22;14047;50.936;4.654;2023-02-13T04:11:26;4.30;99.90
26336;DHT22;14047;50.936;4.654;2023-02-13T04:13:59;4.20;99.90
26336;DHT22;14047;50.936;4.654;2023-02-13T04:16:46;4.10;99.90
26336;DHT22;14047;50.936;4.654;2023-02-13T04:19:14;4.20;99.90
26336;DHT22;14047;50.936;4.654;2023-02-13T04:21:41;4.20;99.90
26336;DHT22;14047;50.936;4.654;2023-02-13T04:24:07;4.20;99.90
26336;DHT22;14047;50.936;4.654;2023-02-13T04:26:39;4.30;99.90
26336;DHT22;14047;50.936;4.654;2023-02-13T04:29:06;4.20;99.90
26336;DHT22;14047;50.936;4.654;2023-02-13T04:31:33;4.20;99.90
26336;DHT22;14047;50.936;4.654;2023-02-13T04:33:59;4.20;99.90
26336;DHT22;14047;50.936;4.654;2023-02-13T04:36:25;4.00;99.90
26336;DHT22;14047;50.936;4.654;2023-02-13T04:38:51;3.90;99.90
26336;DHT22;14047;50.936;4.654;2023-02-13T04:41:17;4.00;99.90
26336;DHT22;14047;50.936;4.654;2023-02-13T04:43:43;4.00;99.90
26336;DHT22;14047;50.936;4.654;2023-02-13T04:46:09;4.10;99.90
26336;DHT22;14047;50.936;4.654;2023-02-13T04:48:36;4.10;99.90
26336;DHT22;14047;50.936;4.654;2023-02-13T04:51:02;4.20;99.90
26336;DHT22;14047;50.936;4.654;2023-02-13T04:53:28;4.10;99.90
26336;DHT22;14047;50.936;4.654;2023-02-13T04:55:54;4.20;99.90
26336;DHT22;14047;50.936;4.654;2023-02-13T04:58:20;4.10;99.90
26336;DHT22;14047;50.936;4.654;2023-02-13T05:00:46;4.10;99.90
26336;DHT22;14047;50.936;4.654;2023-02-13T05:03:12;4.00;99.90
26336;DHT22;14047;50.936;4.654;2023-02-13T05:05:39;4.00;99.90
26336;DHT22;14047;50.936;4.654;2023-02-13T05:08:06;4.00;99.90
26336;DHT22;14047;50.936;4.654;2023-02-13T05:10:33;4.00;99.90
26336;DHT22;14047;50.936;4.654;2023-02-13T05:12:59;4.00;99.90
26336;DHT22;14047;50.936;4.654;2023-02-13T05:15:25;3.90;99.90
26336;DHT22;14047;50.936;4.654;2023-02-13T05:17:51;3.80;99.90
26336;DHT22;14047;50.936;4.654;2023-02-13T05:20:18;3.80;99.90
26336;DHT22;14047;50.936;4.654;2023-02-13T05:22:45;3.80;99.90
26336;DHT22;14047;50.936;4.654;2023-02-13T05:25:30;3.60;99.90
26336;DHT22;14047;50.936;4.654;2023-02-13T05:27:56;3.30;99.90
26336;DHT22;14047;50.936;4.654;2023-02-13T05:30:23;3.30;99.90
26336;DHT22;14047;50.936;4.654;2023-02-13T05:32:49;3.40;99.90
26336;DHT22;14047;50.936;4.654;2023-02-13T05:35:20;3.20;99.90
26336;DHT22;14047;50.936;4.654;2023-02-13T05:37:46;3.10;99.90
26336;DHT22;14047;50.936;4.654;2023-02-13T05:40:13;3.10;99.90
26336;DHT22;14047;50.936;4.654;2023-02-13T05:42:40;3.10;99.90
26336;DHT22;14047;50.936;4.654;2023-02-13T05:45:07;3.10;99.90
26336;DHT22;14047;50.936;4.654;2023-02-13T05:47:33;3.00;99.90
26336;DHT22;14047;50.936;4.654;2023-02-13T05:49:59;3.00;99.90
26336;DHT22;14047;50.936;4.654;2023-02-13T05:52:26;2.90;99.90
26336;DHT22;14047;50.936;4.654;2023-02-13T05:54:51;2.90;99.90
26336;DHT22;14047;50.936;4.654;2023-02-13T05:57:18;3.00;99.90
26336;DHT22;14047;50.936;4.654;2023-02-13T05:59:44;2.90;99.90
26336;DHT22;14047;50.936;4.654;2023-02-13T06:02:10;2.90;99.90
26336;DHT22;14047;50.936;4.654;2023-02-13T06:04:37;2.80;99.90
26336;DHT22;14047;50.936;4.654;2023-02-13T06:07:03;2.80;99.90
26336;DHT22;14047;50.936;4.654;2023-02-13T06:09:29;2.70;99.90
26336;DHT22;14047;50.936;4.654;2023-02-13T06:11:55;2.40;99.90
26336;DHT22;14047;50.936;4.654;2023-02-13T06:14:22;2.30;99.90
26336;DHT22;14047;50.936;4.654;2023-02-13T06:16:48;2.20;99.90
26336;DHT22;14047;50.936;4.654;2023-02-13T06:19:14;2.10;99.90
26336;DHT22;14047;50.936;4.654;2023-02-13T06:21:40;2.00;99.90
26336;DHT22;14047;50.936;4.654;2023-02-13T06:24:07;2.10;99.90
26336;DHT22;14047;50.936;4.654;2023-02-13T06:26:33;2.20;99.90
26336;DHT22;14047;50.936;4.654;2023-02-13T06:28:59;2.10;99.90
26336;DHT22;14047;50.936;4.654;2023-02-13T06:31:25;2.20;99.90
26336;DHT22;14047;50.936;4.654;2023-02-13T06:33:51;2.20;99.90
26336;DHT22;14047;50.936;4.654;2023-02-13T06:36:17;2.10;99.90
26336;DHT22;14047;50.936;4.654;2023-02-13T06:38:43;2.00;99.90
26336;DHT22;14047;50.936;4.654;2023-02-13T06:41:09;2.00;99.90
26336;DHT22;14047;50.936;4.654;2023-02-13T06:43:35;2.00;99.90
26336;DHT22;14047;50.936;4.654;2023-02-13T06:46:05;2.10;99.90
26336;DHT22;14047;50.936;4.654;2023-02-13T06:48:32;2.10;99.90
26336;DHT22;14047;50.936;4.654;2023-02-13T06:50:58;2.10;99.90
26336;DHT22;14047;50.936;4.654;2023-02-13T06:53:26;2.10;99.90
26336;DHT22;14047;50.936;4.654;2023-02-13T06:55:54;2.20;99.90
26336;DHT22;14047;50.936;4.654;2023-02-13T06:58:21;2.20;99.90
26336;DHT22;14047;50.936;4.654;2023-02-13T07:00:48;2.20;99.90
26336;DHT22;14047;50.936;4.654;2023-02-13T07:03:14;2.20;99.90
26336;DHT22;14047;50.936;4.654;2023-02-13T07:05:41;2.20;99.90
26336;DHT22;14047;50.936;4.654;2023-02-13T07:08:08;2.30;99.90
26336;DHT22;14047;50.936;4.654;2023-02-13T07:10:39;2.20;99.90
26336;DHT22;14047;50.936;4.654;2023-02-13T07:13:06;2.20;99.90
26336;DHT22;14047;50.936;4.654;2023-02-13T07:15:33;2.30;99.90
26336;DHT22;14047;50.936;4.654;2023-02-13T07:17:59;2.40;99.90
26336;DHT22;14047;50.936;4.654;2023-02-13T07:20:26;2.40;99.90
26336;DHT22;14047;50.936;4.654;2023-02-13T07:22:52;2.50;99.90
26336;DHT22;14047;50.936;4.654;2023-02-13T07:25:22;2.50;99.90
26336;DHT22;14047;50.936;4.654;2023-02-13T07:27:48;2.60;99.90
26336;DHT22;14047;50.936;4.654;2023-02-13T07:30:14;2.60;99.90
26336;DHT22;14047;50.936;4.654;2023-02-13T07:32:40;2.60;99.90
26336;DHT22;14047;50.936;4.654;2023-02-13T07:35:06;2.70;99.90
26336;DHT22;14047;50.936;4.654;2023-02-13T07:37:32;2.80;99.90
26336;DHT22;14047;50.936;4.654;2023-02-13T07:39:58;2.80;99.90
26336;DHT22;14047;50.936;4.654;2023-02-13T07:42:24;2.90;99.90
26336;DHT22;14047;50.936;4.654;2023-02-13T07:44:50;3.00;99.90
26336;DHT22;14047;50.936;4.654;2023-02-13T07:47:16;3.00;99.90
26336;DHT22;14047;50.936;4.654;2023-02-13T07:49:42;3.10;99.90
26336;DHT22;14047;50.936;4.654;2023-02-13T07:52:09;3.10;99.90
26336;DHT22;14047;50.936;4.654;2023-02-13T07:54:36;3.20;99.90
26336;DHT22;14047;50.936;4.654;2023-02-13T07:57:03;3.20;99.90
26336;DHT22;14047;50.936;4.654;2023-02-13T07:59:29;3.20;99.90
26336;DHT22;14047;50.936;4.654;2023-02-13T08:01:55;3.30;99.90
26336;DHT22;14047;50.936;4.654;2023-02-13T08:04:21;3.40;99.90
26336;DHT22;14047;50.936;4.654;2023-02-13T08:06:47;3.30;99.90
26336;DHT22;14047;50.936;4.654;2023-02-13T08:09:20;3.40;99.90
26336;DHT22;14047;50.936;4.654;2023-02-13T08:12:06;3.40;99.90
26336;DHT22;14047;50.936;4.654;2023-02-13T08:14:33;3.50;99.90
26336;DHT22;14047;50.936;4.654;2023-02-13T08:16:59;3.60;99.90
26336;DHT22;14047;50.936;4.654;2023-02-13T08:19:28;3.40;99.90
26336;DHT22;14047;50.936;4.654;2023-02-13T08:21:54;3.20;99.90
26336;DHT22;14047;50.936;4.654;2023-02-13T08:24:20;3.20;99.90
26336;DHT22;14047;50.936;4.654;2023-02-13T08:26:46;3.30;99.90
26336;DHT22;14047;50.936;4.654;2023-02-13T08:29:12;3.60;99.90
26336;DHT22;14047;50.936;4.654;2023-02-13T08:31:38;3.60;99.90
26336;DHT22;14047;50.936;4.654;2023-02-13T08:34:04;3.80;99.90
26336;DHT22;14047;50.936;4.654;2023-02-13T08:36:30;4.00;99.90
26336;DHT22;14047;50.936;4.654;2023-02-13T08:38:56;4.20;99.90
26336;DHT22;14047;50.936;4.654;2023-02-13T08:41:22;4.30;99.90
26336;DHT22;14047;50.936;4.654;2023-02-13T08:43:49;4.40;99.90
26336;DHT22;14047;50.936;4.654;2023-02-13T08:46:16;4.60;99.90
26336;DHT22;14047;50.936;4.654;2023-02-13T08:48:42;4.70;99.90
26336;DHT22;14047;50.936;4.654;2023-02-13T08:51:10;4.80;99.90
26336;DHT22;14047;50.936;4.654;2023-02-13T08:53:37;4.90;99.90
26336;DHT22;14047;50.936;4.654;2023-02-13T08:56:03;5.10;99.90
26336;DHT22;14047;50.936;4.654;2023-02-13T08:58:29;5.20;99.90
26336;DHT22;14047;50.936;4.654;2023-02-13T09:00:55;5.40;99.90
26336;DHT22;14047;50.936;4.654;2023-02-13T09:03:22;5.40;99.90
26336;DHT22;14047;50.936;4.654;2023-02-13T09:05:48;5.60;99.90
26336;DHT22;14047;50.936;4.654;2023-02-13T09:08:14;5.70;99.90
26336;DHT22;14047;50.936;4.654;2023-02-13T09:10:41;5.60;99.90
26336;DHT22;14047;50.936;4.654;2023-02-13T09:13:08;5.60;99.90
26336;DHT22;14047;50.936;4.654;2023-02-13T09:15:37;5.60;99.90
26336;DHT22;14047;50.936;4.654;2023-02-13T09:18:05;5.60;99.90
26336;DHT22;14047;50.936;4.654;2023-02-13T09:20:31;5.60;99.90
26336;DHT22;14047;50.936;4.654;2023-02-13T09:22:57;5.90;99.90
26336;DHT22;14047;50.936;4.654;2023-02-13T09:25:24;6.10;99.90
26336;DHT22;14047;50.936;4.654;2023-02-13T09:27:50;6.20;99.90
26336;DHT22;14047;50.936;4.654;2023-02-13T09:30:16;6.30;99.90
26336;DHT22;14047;50.936;4.654;2023-02-13T09:32:52;6.50;99.90
26336;DHT22;14047;50.936;4.654;2023-02-13T09:35:19;6.40;99.90
26336;DHT22;14047;50.936;4.654;2023-02-13T09:37:45;6.40;99.90
26336;DHT22;14047;50.936;4.654;2023-02-13T09:40:19;6.50;99.90
26336;DHT22;14047;50.936;4.654;2023-02-13T09:42:46;6.60;99.90
26336;DHT22;14047;50.936;4.654;2023-02-13T09:45:20;6.70;99.90
26336;DHT22;14047;50.936;4.654;2023-02-13T09:47:46;6.90;99.90
26336;DHT22;14047;50.936;4.654;2023-02-13T09:50:20;6.90;99.90
26336;DHT22;14047;50.936;4.654;2023-02-13T09:52:50;7.10;99.90
26336;DHT22;14047;50.936;4.654;2023-02-13T09:55:19;7.30;99.90
26336;DHT22;14047;50.936;4.654;2023-02-13T09:57:52;7.30;99.90
26336;DHT22;14047;50.936;4.654;2023-02-13T10:00:52;7.30;99.90
26336;DHT22;14047;50.936;4.654;2023-02-13T10:06:36;7.30;99.90
26336;DHT22;14047;50.936;4.654;2023-02-13T10:09:43;7.50;99.90
26336;DHT22;14047;50.936;4.654;2023-02-13T10:12:36;7.70;99.90
26336;DHT22;14047;50.936;4.654;2023-02-13T10:15:36;7.90;99.90
26336;DHT22;14047;50.936;4.654;2023-02-13T10:18:12;8.00;99.90
26336;DHT22;14047;50.936;4.654;2023-02-13T10:23:26;8.10;99.90
26336;DHT22;14047;50.936;4.654;2023-02-13T10:26:30;8.30;99.90
26336;DHT22;14047;50.936;4.654;2023-02-13T10:29:27;8.50;99.90
26336;DHT22;14047;50.936;4.654;2023-02-13T10:32:16;8.70;99.90
26336;DHT22;14047;50.936;4.654;2023-02-13T10:34:45;8.80;99.90
26336;DHT22;14047;50.936;4.654;2023-02-13T10:37:18;9.00;99.90
26336;DHT22;14047;50.936;4.654;2023-02-13T10:39:49;9.10;99.90
26336;DHT22;14047;50.936;4.654;2023-02-13T10:54:01;9.80;99.90
26336;DHT22;14047;50.936;4.654;2023-02-13T10:56:50;9.90;99.90
26336;DHT22;14047;50.936;4.654;2023-02-13T11:04:42;10.20;99.90
26336;DHT22;14047;50.936;4.654;2023-02-13T11:07:13;10.40;99.90
26336;DHT22;14047;50.936;4.654;2023-02-13T11:09:41;10.50;99.90
26336;DHT22;14047;50.936;4.654;2023-02-13T11:12:29;10.60;99.90
26336;DHT22;14047;50.936;4.654;2023-02-13T11:15:05;10.70;99.90
26336;DHT22;14047;50.936;4.654;2023-02-13T11:17:34;10.80;99.90
26336;DHT22;14047;50.936;4.654;2023-02-13T11:20:24;10.70;99.90
26336;DHT22;14047;50.936;4.654;2023-02-13T11:22:51;10.90;99.90
26336;DHT22;14047;50.936;4.654;2023-02-13T11:25:24;10.90;99.90
26336;DHT22;14047;50.936;4.654;2023-02-13T11:28:14;11.00;99.90
26336;DHT22;14047;50.936;4.654;2023-02-13T11:30:40;11.10;99.90
26336;DHT22;14047;50.936;4.654;2023-02-13T11:33:27;11.30;99.90
26336;DHT22;14047;50.936;4.654;2023-02-13T11:36:08;11.30;99.90
26336;DHT22;14047;50.936;4.654;2023-02-13T11:38:34;11.30;99.90
26336;DHT22;14047;50.936;4.654;2023-02-13T11:41:08;11.40;99.90
26336;DHT22;14047;50.936;4.654;2023-02-13T11:46:15;11.60;99.90
26336;DHT22;14047;50.936;4.654;2023-02-13T11:48:42;11.80;99.90
26336;DHT22;14047;50.936;4.654;2023-02-13T11:51:08;11.70;99.90
26336;DHT22;14047;50.936;4.654;2023-02-13T11:53:38;11.80;99.90
26336;DHT22;14047;50.936;4.654;2023-02-13T11:58:33;12.00;99.90
26336;DHT22;14047;50.936;4.654;2023-02-13T12:09:41;12.40;99.90
26336;DHT22;14047;50.936;4.654;2023-02-13T12:12:16;12.50;99.90
26336;DHT22;14047;50.936;4.654;2023-02-13T12:14:44;12.70;99.90
26336;DHT22;14047;50.936;4.654;2023-02-13T12:17:22;12.70;99.90
26336;DHT22;14047;50.936;4.654;2023-02-13T12:19:49;12.70;99.90
26336;DHT22;14047;50.936;4.654;2023-02-13T12:28:12;12.90;99.90
26336;DHT22;14047;50.936;4.654;2023-02-13T12:42:28;13.20;99.90
26336;DHT22;14047;50.936;4.654;2023-02-13T12:45:15;13.30;99.90
26336;DHT22;14047;50.936;4.654;2023-02-13T12:54:33;13.40;99.90
26336;DHT22;14047;50.936;4.654;2023-02-13T12:57:02;13.50;99.90
26336;DHT22;14047;50.936;4.654;2023-02-13T13:02:48;13.70;99.90
26336;DHT22;14047;50.936;4.654;2023-02-13T13:05:31;13.70;99.90
26336;DHT22;14047;50.936;4.654;2023-02-13T13:08:21;13.80;99.90
26336;DHT22;14047;50.936;4.654;2023-02-13T13:14:22;13.90;99.90
26336;DHT22;14047;50.936;4.654;2023-02-13T13:16:52;14.00;99.90
26336;DHT22;14047;50.936;4.654;2023-02-13T13:20:07;14.00;99.90
26336;DHT22;14047;50.936;4.654;2023-02-13T13:27:35;14.30;99.90
26336;DHT22;14047;50.936;4.654;2023-02-13T13:30:11;14.20;99.90
26336;DHT22;14047;50.936;4.654;2023-02-13T13:32:39;14.20;99.90
26336;DHT22;14047;50.936;4.654;2023-02-13T13:35:14;14.30;99.90
26336;DHT22;14047;50.936;4.654;2023-02-13T13:40:28;14.40;99.90
26336;DHT22;14047;50.936;4.654;2023-02-13T13:43:20;14.40;99.90
26336;DHT22;14047;50.936;4.654;2023-02-13T13:51:20;14.50;99.90
26336;DHT22;14047;50.936;4.654;2023-02-13T13:56:24;14.60;99.90
26336;DHT22;14047;50.936;4.654;2023-02-13T13:58:50;14.60;99.90
26336;DHT22;14047;50.936;4.654;2023-02-13T14:03:48;14.70;99.90
26336;DHT22;14047;50.936;4.654;2023-02-13T14:06:23;14.70;99.90
26336;DHT22;14047;50.936;4.654;2023-02-13T14:08:57;14.70;99.90
26336;DHT22;14047;50.936;4.654;2023-02-13T14:11:43;14.70;99.90
26336;DHT22;14047;50.936;4.654;2023-02-13T14:16:53;14.80;99.90
26336;DHT22;14047;50.936;4.654;2023-02-13T14:19:53;14.90;99.90
26336;DHT22;14047;50.936;4.654;2023-02-13T14:25:05;14.90;99.90
26336;DHT22;14047;50.936;4.654;2023-02-13T14:27:37;14.80;99.90
26336;DHT22;14047;50.936;4.654;2023-02-13T14:30:28;14.80;99.90
26336;DHT22;14047;50.936;4.654;2023-02-13T14:32:57;14.80;99.90
26336;DHT22;14047;50.936;4.654;2023-02-13T14:35:27;14.90;99.90
26336;DHT22;14047;50.936;4.654;2023-02-13T14:37:57;15.00;99.90
26336;DHT22;14047;50.936;4.654;2023-02-13T14:40:46;15.00;99.90
26336;DHT22;14047;50.936;4.654;2023-02-13T14:43:34;15.10;99.90
26336;DHT22;14047;50.936;4.654;2023-02-13T14:46:15;15.00;99.90
26336;DHT22;14047;50.936;4.654;2023-02-13T14:49:05;15.00;99.90
26336;DHT22;14047;50.936;4.654;2023-02-13T14:51:39;14.90;99.90
26336;DHT22;14047;50.936;4.654;2023-02-13T14:54:17;14.90;99.90
26336;DHT22;14047;50.936;4.654;2023-02-13T14:56:49;15.00;99.90
26336;DHT22;14047;50.936;4.654;2023-02-13T14:59:18;15.00;99.90
26336;DHT22;14047;50.936;4.654;2023-02-13T15:01:51;15.10;99.90
26336;DHT22;14047;50.936;4.654;2023-02-13T15:04:37;15.20;99.90
26336;DHT22;14047;50.936;4.654;2023-02-13T15:13:00;15.10;99.90
26336;DHT22;14047;50.936;4.654;2023-02-13T15:15:30;15.00;99.90
26336;DHT22;14047;50.936;4.654;2023-02-13T15:18:00;14.90;99.90
26336;DHT22;14047;50.936;4.654;2023-02-13T15:20:31;15.00;99.90
26336;DHT22;14047;50.936;4.654;2023-02-13T15:22:58;14.90;99.90
26336;DHT22;14047;50.936;4.654;2023-02-13T15:25:44;14.80;99.90
26336;DHT22;14047;50.936;4.654;2023-02-13T15:28:20;15.00;99.90
26336;DHT22;14047;50.936;4.654;2023-02-13T15:31:06;15.00;99.90
26336;DHT22;14047;50.936;4.654;2023-02-13T15:33:48;14.90;99.90
26336;DHT22;14047;50.936;4.654;2023-02-13T15:36:20;15.00;99.90
26336;DHT22;14047;50.936;4.654;2023-02-13T15:38:46;15.10;99.90
26336;DHT22;14047;50.936;4.654;2023-02-13T15:41:17;15.10;99.90
26336;DHT22;14047;50.936;4.654;2023-02-13T15:43:52;14.90;99.90
26336;DHT22;14047;50.936;4.654;2023-02-13T15:46:30;14.80;99.90
26336;DHT22;14047;50.936;4.654;2023-02-13T15:49:14;14.90;99.90
26336;DHT22;14047;50.936;4.654;2023-02-13T15:51:41;14.80;99.90
26336;DHT22;14047;50.936;4.654;2023-02-13T15:56:50;14.80;99.90
26336;DHT22;14047;50.936;4.654;2023-02-13T15:59:17;14.80;99.90
26336;DHT22;14047;50.936;4.654;2023-02-13T16:01:45;14.80;99.90
26336;DHT22;14047;50.936;4.654;2023-02-13T16:04:14;14.90;99.90
26336;DHT22;14047;50.936;4.654;2023-02-13T16:06:42;15.20;99.90
26336;DHT22;14047;50.936;4.654;2023-02-13T16:09:34;15.50;99.90
26336;DHT22;14047;50.936;4.654;2023-02-13T16:12:25;16.00;99.90
26336;DHT22;14047;50.936;4.654;2023-02-13T16:15:01;16.20;99.90
26336;DHT22;14047;50.936;4.654;2023-02-13T16:17:38;16.50;99.90
26336;DHT22;14047;50.936;4.654;2023-02-13T16:28:00;15.50;99.90
26336;DHT22;14047;50.936;4.654;2023-02-13T16:30:35;15.20;99.90
26336;DHT22;14047;50.936;4.654;2023-02-13T16:35:37;14.70;99.90
26336;DHT22;14047;50.936;4.654;2023-02-13T16:38:03;14.40;99.90
26336;DHT22;14047;50.936;4.654;2023-02-13T16:40:34;14.30;99.90
26336;DHT22;14047;50.936;4.654;2023-02-13T16:46:10;13.80;99.90
26336;DHT22;14047;50.936;4.654;2023-02-13T16:48:37;13.60;99.90
26336;DHT22;14047;50.936;4.654;2023-02-13T16:51:03;13.40;99.90
26336;DHT22;14047;50.936;4.654;2023-02-13T16:53:29;13.30;99.90
26336;DHT22;14047;50.936;4.654;2023-02-13T16:56:01;13.10;99.90
26336;DHT22;14047;50.936;4.654;2023-02-13T16:58:27;13.00;99.90
26336;DHT22;14047;50.936;4.654;2023-02-13T17:00:53;12.80;99.90
26336;DHT22;14047;50.936;4.654;2023-02-13T17:03:19;12.60;99.90
26336;DHT22;14047;50.936;4.654;2023-02-13T17:05:45;12.50;99.90
26336;DHT22;14047;50.936;4.654;2023-02-13T17:08:11;12.20;99.90
26336;DHT22;14047;50.936;4.654;2023-02-13T17:10:38;12.00;99.90
26336;DHT22;14047;50.936;4.654;2023-02-13T17:15:43;11.60;99.90
26336;DHT22;14047;50.936;4.654;2023-02-13T17:18:10;11.50;99.90
26336;DHT22;14047;50.936;4.654;2023-02-13T17:20:40;11.40;99.90
26336;DHT22;14047;50.936;4.654;2023-02-13T17:23:11;11.30;99.90
26336;DHT22;14047;50.936;4.654;2023-02-13T17:25:38;11.20;99.90
26336;DHT22;14047;50.936;4.654;2023-02-13T17:28:17;11.10;99.90
26336;DHT22;14047;50.936;4.654;2023-02-13T17:30:45;11.10;99.90
26336;DHT22;14047;50.936;4.654;2023-02-13T17:33:26;11.00;99.90
26336;DHT22;14047;50.936;4.654;2023-02-13T17:35:53;10.80;99.90
26336;DHT22;14047;50.936;4.654;2023-02-13T17:38:20;10.80;99.90
26336;DHT22;14047;50.936;4.654;2023-02-13T17:40:46;10.70;99.90
26336;DHT22;14047;50.936;4.654;2023-02-13T17:43:15;10.50;99.90
26336;DHT22;14047;50.936;4.654;2023-02-13T17:45:42;10.40;99.90
26336;DHT22;14047;50.936;4.654;2023-02-13T17:48:08;10.30;99.90
26336;DHT22;14047;50.936;4.654;2023-02-13T17:50:35;10.10;99.90
26336;DHT22;14047;50.936;4.654;2023-02-13T17:53:04;10.00;99.90
26336;DHT22;14047;50.936;4.654;2023-02-13T17:55:32;9.90;99.90
26336;DHT22;14047;50.936;4.654;2023-02-13T17:57:59;9.80;99.90
26336;DHT22;14047;50.936;4.654;2023-02-13T18:00:30;9.70;99.90
26336;DHT22;14047;50.936;4.654;2023-02-13T18:02:58;9.70;99.90
26336;DHT22;14047;50.936;4.654;2023-02-13T18:05:25;9.60;99.90
26336;DHT22;14047;50.936;4.654;2023-02-13T18:07:51;9.50;99.90
26336;DHT22;14047;50.936;4.654;2023-02-13T18:10:22;9.40;99.90
26336;DHT22;14047;50.936;4.654;2023-02-13T18:12:50;9.30;99.90
26336;DHT22;14047;50.936;4.654;2023-02-13T18:15:16;9.20;99.90
26336;DHT22;14047;50.936;4.654;2023-02-13T18:17:43;9.10;99.90
26336;DHT22;14047;50.936;4.654;2023-02-13T18:20:12;9.10;99.90
26336;DHT22;14047;50.936;4.654;2023-02-13T18:22:38;9.10;99.90
26336;DHT22;14047;50.936;4.654;2023-02-13T18:25:05;8.90;99.90
26336;DHT22;14047;50.936;4.654;2023-02-13T18:27:31;8.90;99.90
26336;DHT22;14047;50.936;4.654;2023-02-13T18:29:57;8.70;99.90
26336;DHT22;14047;50.936;4.654;2023-02-13T18:32:23;8.60;99.90
26336;DHT22;14047;50.936;4.654;2023-02-13T18:34:49;8.60;99.90
26336;DHT22;14047;50.936;4.654;2023-02-13T18:37:16;8.60;99.90
26336;DHT22;14047;50.936;4.654;2023-02-13T18:39:42;8.50;99.90
26336;DHT22;14047;50.936;4.654;2023-02-13T18:42:09;8.50;99.90
26336;DHT22;14047;50.936;4.654;2023-02-13T18:44:38;8.50;99.90
26336;DHT22;14047;50.936;4.654;2023-02-13T18:47:04;8.40;99.90